Time;durP1;ratioP1;P1;durP2;ratioP2;P2;SDS_P1;SDS_P2;PMS_P1;PMS_P2;Temp;Humidity;BMP_temperature;BMP_pressure;BME280_temperature;BME280_humidity;BME280_pressure;Samples;Min_cycle;Max_cycle;Signal;HPM_P1;HPM_P2
2022/05/10 00:00:06;;;;;;;7.88;2.03;;;;;;;;;;2088070;28;20021;-64
2022/05/10 00:01:35;;;;;;;4.10;1.27;;;;;;;;;;2089297;28;20052;-65
2022/05/10 00:02:55;;;;;;;6.45;1.92;;;;;;;;;;2089369;28;20467;-65
2022/05/10 00:04:14;;;;;;;5.65;1.48;;;;;;;;;;2089528;28;20379;-65
2022/05/10 00:05:39;;;;;;;4.97;1.80;;;;;;;;;;2088846;28;20025;-65
2022/05/10 00:06:57;;;;;;;5.20;1.73;;;;;;;;;;2089867;28;20024;-65
2022/05/10 00:08:17;;;;;;;4.32;1.88;;;;;;;;;;2090096;28;20029;-64
2022/05/10 00:09:36;;;;;;;3.40;1.63;;;;;;;;;;2089930;28;20411;-65
2022/05/10 00:10:56;;;;;;;9.32;1.90;;;;;;;;;;2090478;28;20029;-65
2022/05/10 00:12:15;;;;;;;4.57;1.88;;;;;;;;;;2089192;28;20024;-65
2022/05/10 00:13:34;;;;;;;3.42;1.67;;;;;;;;;;2089687;28;20033;-65
2022/05/10 00:14:53;;;;;;;4.57;1.92;;;;;;;;;;2088937;28;20030;-68
2022/05/10 00:16:18;;;;;;;5.22;2.13;;;;;;;;;;2089528;28;20071;-65
2022/05/10 00:17:38;;;;;;;3.25;1.58;;;;;;;;;;2088981;28;20463;-66
2022/05/10 00:18:57;;;;;;;3.67;1.50;;;;;;;;;;2090089;28;20535;-66
2022/05/10 00:20:19;;;;;;;3.28;1.60;;;;;;;;;;2089347;28;20116;-66
2022/05/10 00:21:38;;;;;;;6.35;1.73;;;;;;;;;;2090083;28;20021;-65
2022/05/10 00:22:56;;;;;;;3.63;1.60;;;;;;;;;;2089113;28;20013;-64
2022/05/10 00:24:15;;;;;;;1.90;1.35;;;;;;;;;;2090151;28;20025;-65
2022/05/10 00:25:34;;;;;;;3.35;1.73;;;;;;;;;;2088581;28;20025;-65
2022/05/10 00:26:55;;;;;;;5.88;1.80;;;;;;;;;;2089543;28;20025;-65
2022/05/10 00:28:14;;;;;;;4.65;1.98;;;;;;;;;;2089714;28;20065;-64
2022/05/10 00:29:33;;;;;;;7.35;2.00;;;;;;;;;;2090137;28;20041;-65
2022/05/10 00:30:52;;;;;;;5.40;2.05;;;;;;;;;;2089134;28;20041;-68
2022/05/10 00:32:11;;;;;;;7.20;2.10;;;;;;;;;;2089835;28;20029;-65
2022/05/10 00:33:30;;;;;;;3.75;1.83;;;;;;;;;;2089927;28;20037;-65
2022/05/10 00:34:49;;;;;;;5.97;1.90;;;;;;;;;;2090504;28;20025;-66
2022/05/10 00:36:10;;;;;;;1.73;1.50;;;;;;;;;;2089260;28;20033;-65
2022/05/10 00:37:29;;;;;;;5.35;2.15;;;;;;;;;;2090027;28;20037;-65
2022/05/10 00:38:48;;;;;;;5.03;1.70;;;;;;;;;;2088664;28;20089;-66
2022/05/10 00:40:07;;;;;;;8.30;1.75;;;;;;;;;;2089744;28;20450;-67
2022/05/10 00:41:29;;;;;;;11.85;2.28;;;;;;;;;;2086677;28;20037;-66
2022/05/10 00:43:02;;;;;;;7.45;2.30;;;;;;;;;;2089596;28;20029;-66
2022/05/10 00:44:24;;;;;;;6.70;1.80;;;;;;;;;;2079929;28;20034;-65
2022/05/10 00:45:43;;;;;;;5.85;1.88;;;;;;;;;;2085787;28;20033;-65
2022/05/10 00:47:06;;;;;;;7.22;2.00;;;;;;;;;;2089396;28;20044;-64
2022/05/10 00:48:32;;;;;;;5.65;1.73;;;;;;;;;;2089812;28;20025;-64
2022/05/10 00:50:01;;;;;;;4.05;1.90;;;;;;;;;;2088465;28;20029;-64
2022/05/10 00:51:26;;;;;;;5.10;1.88;;;;;;;;;;2089293;28;20057;-64
2022/05/10 00:53:04;;;;;;;4.00;1.63;;;;;;;;;;2088505;28;20479;-65
2022/05/10 00:54:26;;;;;;;4.90;2.40;;;;;;;;;;2089779;28;20037;-65
2022/05/10 00:55:45;;;;;;;5.28;1.67;;;;;;;;;;2088850;28;20111;-65
2022/05/10 00:57:10;;;;;;;5.05;1.80;;;;;;;;;;2089488;28;20041;-65
2022/05/10 00:58:32;;;;;;;3.22;1.70;;;;;;;;;;2089716;28;20116;-65
2022/05/10 01:00:12;;;;;;;5.15;1.90;;;;;;;;;;2088791;28;20021;-65
2022/05/10 01:01:33;;;;;;;3.15;2.00;;;;;;;;;;2089450;28;20033;-65
2022/05/10 01:02:57;;;;;;;4.93;1.50;;;;;;;;;;2089216;28;20503;-64
2022/05/10 01:04:25;;;;;;;5.18;2.00;;;;;;;;;;2089565;28;20029;-65
2022/05/10 01:05:44;;;;;;;4.50;2.00;;;;;;;;;;2089595;28;20487;-64
2022/05/10 01:07:38;;;;;;;4.03;1.85;;;;;;;;;;2077853;28;20076;-64
2022/05/10 01:09:12;;;;;;;3.90;1.67;;;;;;;;;;2049124;28;20117;-64
2022/05/10 01:10:53;;;;;;;4.95;2.00;;;;;;;;;;2048333;28;20035;-63
2022/05/10 01:12:17;;;;;;;4.57;1.80;;;;;;;;;;2088900;28;20507;-64
2022/05/10 01:13:45;;;;;;;4.50;1.70;;;;;;;;;;2089206;28;20037;-64
2022/05/10 01:15:04;;;;;;;6.65;1.80;;;;;;;;;;2089208;28;20032;-63
2022/05/10 01:16:24;;;;;;;3.45;1.42;;;;;;;;;;2088714;28;20127;-65
2022/05/10 01:17:44;;;;;;;7.63;1.58;;;;;;;;;;2088402;28;20482;-65
2022/05/10 01:19:03;;;;;;;6.10;1.60;;;;;;;;;;2088610;28;20057;-64
2022/05/10 01:20:35;;;;;;;7.38;1.77;;;;;;;;;;2071241;28;20026;-64
2022/05/10 01:21:56;;;;;;;8.00;2.00;;;;;;;;;;2076201;28;20021;-65
2022/05/10 01:23:24;;;;;;;4.75;2.00;;;;;;;;;;2084703;28;20506;-65
2022/05/10 01:24:43;;;;;;;8.65;2.22;;;;;;;;;;2085258;28;20037;-65
2022/05/10 01:26:04;;;;;;;3.50;1.73;;;;;;;;;;2086545;28;20029;-65
2022/05/10 01:27:29;;;;;;;6.50;2.00;;;;;;;;;;2088482;28;20456;-64
2022/05/10 01:28:50;;;;;;;10.80;2.00;;;;;;;;;;2089775;28;20037;-65
2022/05/10 01:30:11;;;;;;;5.82;2.10;;;;;;;;;;2088616;28;20108;-65
2022/05/10 01:31:40;;;;;;;5.57;1.92;;;;;;;;;;2087733;28;20423;-65
2022/05/10 01:34:40;;;;;;;6.88;2.38;;;;;;;;;;2089300;28;20055;-65
2022/05/10 01:36:17;;;;;;;4.57;1.77;;;;;;;;;;2079324;28;20030;-65
2022/05/10 01:37:38;;;;;;;2.20;1.70;;;;;;;;;;2087186;28;20036;-64
2022/05/10 01:39:14;;;;;;;3.33;2.20;;;;;;;;;;2089403;28;20077;-64
2022/05/10 01:40:37;;;;;;;3.53;1.90;;;;;;;;;;2089305;28;20021;-63
2022/05/10 01:42:07;;;;;;;3.55;1.67;;;;;;;;;;2089040;28;20021;-64
2022/05/10 01:43:34;;;;;;;4.68;2.17;;;;;;;;;;2087987;28;20033;-65
2022/05/10 01:45:00;;;;;;;4.60;1.52;;;;;;;;;;2089248;28;20405;-65
2022/05/10 01:46:25;;;;;;;7.65;1.67;;;;;;;;;;2088999;28;20507;-64
2022/05/10 01:47:47;;;;;;;4.78;1.60;;;;;;;;;;2088027;28;20033;-65
2022/05/10 01:49:15;;;;;;;6.35;2.05;;;;;;;;;;2089080;28;20542;-65
2022/05/10 01:50:40;;;;;;;6.25;1.80;;;;;;;;;;2079587;28;20116;-65
2022/05/10 01:52:21;;;;;;;5.35;1.80;;;;;;;;;;2087345;28;20104;-65
2022/05/10 01:53:40;;;;;;;6.55;2.30;;;;;;;;;;2088053;28;20037;-65
2022/05/10 01:55:05;;;;;;;4.75;2.15;;;;;;;;;;2088567;28;20033;-65
2022/05/10 01:56:26;;;;;;;3.08;1.58;;;;;;;;;;2088942;28;20076;-65
2022/05/10 01:57:45;;;;;;;3.28;1.65;;;;;;;;;;2078213;28;20030;-65
2022/05/10 01:59:04;;;;;;;6.13;1.83;;;;;;;;;;2085661;28;20029;-65
2022/05/10 02:00:26;;;;;;;3.70;1.80;;;;;;;;;;2088737;28;20037;-65
2022/05/10 02:01:45;;;;;;;4.07;2.00;;;;;;;;;;2088057;28;20017;-65
2022/05/10 02:03:20;;;;;;;4.40;1.67;;;;;;;;;;2088633;28;20387;-64
2022/05/10 02:04:40;;;;;;;6.18;1.63;;;;;;;;;;2089451;28;20033;-65
2022/05/10 02:06:05;;;;;;;5.20;2.03;;;;;;;;;;2088671;28;20017;-64
2022/05/10 02:07:26;;;;;;;4.20;1.60;;;;;;;;;;2089171;28;20103;-63
2022/05/10 02:08:56;;;;;;;6.70;1.98;;;;;;;;;;2089595;28;20041;-65
2022/05/10 02:10:19;;;;;;;5.00;1.73;;;;;;;;;;2089640;28;20037;-64
2022/05/10 02:11:46;;;;;;;3.13;1.73;;;;;;;;;;2084194;28;20030;-66
2022/05/10 02:13:18;;;;;;;7.15;2.20;;;;;;;;;;2086705;28;20037;-65
2022/05/10 02:14:39;;;;;;;3.88;1.83;;;;;;;;;;2080414;28;20029;-64
2022/05/10 02:16:24;;;;;;;2.08;1.70;;;;;;;;;;2086440;28;20066;-65
2022/05/10 02:17:43;;;;;;;4.65;1.83;;;;;;;;;;2088589;28;20057;-65
2022/05/10 02:19:09;;;;;;;7.15;2.22;;;;;;;;;;2088778;28;20089;-65
2022/05/10 02:20:31;;;;;;;2.40;1.65;;;;;;;;;;2088678;28;20028;-65
2022/05/10 02:22:10;;;;;;;3.40;1.50;;;;;;;;;;2089039;28;20030;-65
2022/05/10 02:23:32;;;;;;;4.70;1.63;;;;;;;;;;2089083;28;20029;-65
2022/05/10 02:24:54;;;;;;;4.55;2.03;;;;;;;;;;2088912;28;20041;-65
2022/05/10 02:26:16;;;;;;;4.25;1.65;;;;;;;;;;2087750;28;20041;-65
2022/05/10 02:27:37;;;;;;;3.33;1.70;;;;;;;;;;2079776;28;20029;-65
2022/05/10 02:29:06;;;;;;;4.97;1.63;;;;;;;;;;2085233;28;20045;-66
2022/05/10 02:30:27;;;;;;;3.28;1.63;;;;;;;;;;2079400;28;20410;-64
2022/05/10 02:33:42;;;;;;;8.73;2.00;;;;;;;;;;2089560;28;20041;-64
2022/05/10 02:35:04;;;;;;;3.88;1.58;;;;;;;;;;2088903;28;20398;-65
2022/05/10 02:36:23;;;;;;;3.47;1.63;;;;;;;;;;2080159;28;20037;-64
2022/05/10 02:37:42;;;;;;;5.15;2.05;;;;;;;;;;2085527;28;20037;-64
2022/05/10 02:39:01;;;;;;;2.47;1.40;;;;;;;;;;2079603;28;20080;-64
2022/05/10 02:40:20;;;;;;;3.95;1.92;;;;;;;;;;2080533;28;20033;-64
2022/05/10 02:41:39;;;;;;;2.90;1.85;;;;;;;;;;2081263;28;20030;-64
2022/05/10 02:42:58;;;;;;;2.92;1.33;;;;;;;;;;2080994;28;20030;-65
2022/05/10 02:44:17;;;;;;;3.42;1.60;;;;;;;;;;2071986;28;20041;-65
2022/05/10 02:45:37;;;;;;;4.10;1.63;;;;;;;;;;2068263;28;20030;-65
2022/05/10 02:46:57;;;;;;;4.53;1.63;;;;;;;;;;2072353;28;20030;-65
2022/05/10 02:48:21;;;;;;;2.78;1.45;;;;;;;;;;2077359;28;20488;-65
2022/05/10 02:49:40;;;;;;;4.03;1.98;;;;;;;;;;2071761;28;20037;-65
2022/05/10 02:50:59;;;;;;;2.90;1.45;;;;;;;;;;2076557;28;20022;-65
2022/05/10 02:52:18;;;;;;;4.13;1.70;;;;;;;;;;2072228;28;20030;-65
2022/05/10 02:53:37;;;;;;;3.00;1.67;;;;;;;;;;2077445;28;20057;-65
2022/05/10 02:54:57;;;;;;;4.85;1.35;;;;;;;;;;2082228;28;20026;-64
2022/05/10 02:56:19;;;;;;;3.05;1.42;;;;;;;;;;2081697;28;20060;-65
2022/05/10 02:57:38;;;;;;;5.32;1.67;;;;;;;;;;2081572;28;20407;-65
2022/05/10 02:59:03;;;;;;;2.67;1.38;;;;;;;;;;2082654;28;20065;-63
2022/05/10 03:00:23;;;;;;;3.03;1.45;;;;;;;;;;2080181;28;20033;-61
2022/05/10 03:01:51;;;;;;;6.10;1.77;;;;;;;;;;2082750;28;20104;-64
2022/05/10 03:03:13;;;;;;;5.28;1.25;;;;;;;;;;2082328;28;20029;-64
2022/05/10 03:04:36;;;;;;;2.40;1.40;;;;;;;;;;2082262;28;20045;-62
2022/05/10 03:05:55;;;;;;;3.92;1.70;;;;;;;;;;2082631;28;20026;-63
2022/05/10 03:07:14;;;;;;;3.28;1.58;;;;;;;;;;2082608;28;20430;-64
2022/05/10 03:08:33;;;;;;;2.97;1.50;;;;;;;;;;2081501;28;20041;-64
2022/05/10 03:09:52;;;;;;;3.47;1.35;;;;;;;;;;2073230;28;20029;-64
2022/05/10 03:11:11;;;;;;;2.30;1.35;;;;;;;;;;2079629;28;20122;-63
2022/05/10 03:12:30;;;;;;;1.80;1.48;;;;;;;;;;2081690;28;20475;-63
2022/05/10 03:13:49;;;;;;;3.40;1.40;;;;;;;;;;2082197;28;20030;-64
2022/05/10 03:15:09;;;;;;;1.90;1.23;;;;;;;;;;2081471;28;20018;-63
2022/05/10 03:16:28;;;;;;;4.85;1.38;;;;;;;;;;2082330;28;20029;-63
2022/05/10 03:17:47;;;;;;;2.45;1.35;;;;;;;;;;2082002;28;20107;-63
2022/05/10 03:19:06;;;;;;;1.85;1.52;;;;;;;;;;2081120;28;20030;-61
2022/05/10 03:20:25;;;;;;;2.95;1.42;;;;;;;;;;2081768;28;20025;-64
2022/05/10 03:21:45;;;;;;;2.78;1.50;;;;;;;;;;2082024;28;20527;-64
2022/05/10 03:23:04;;;;;;;6.75;1.35;;;;;;;;;;2082206;28;20108;-64
2022/05/10 03:24:22;;;;;;;5.38;1.65;;;;;;;;;;2082223;28;20037;-64
2022/05/10 03:25:41;;;;;;;3.75;1.35;;;;;;;;;;2080341;28;20029;-64
2022/05/10 03:27:03;;;;;;;4.70;1.33;;;;;;;;;;2082485;28;20041;-63
2022/05/10 03:28:22;;;;;;;3.90;1.30;;;;;;;;;;2082139;28;20033;-65
2022/05/10 03:29:41;;;;;;;5.13;1.40;;;;;;;;;;2080670;28;20033;-65
2022/05/10 03:31:00;;;;;;;3.63;1.80;;;;;;;;;;2081109;28;20400;-65
2022/05/10 03:32:19;;;;;;;4.95;1.48;;;;;;;;;;2079888;28;20061;-65
2022/05/10 03:33:37;;;;;;;4.68;1.70;;;;;;;;;;2082238;28;20499;-65
2022/05/10 03:34:58;;;;;;;3.35;1.27;;;;;;;;;;2081550;28;20041;-65
2022/05/10 03:36:16;;;;;;;4.57;1.40;;;;;;;;;;2081095;28;20030;-64
2022/05/10 03:37:35;;;;;;;2.13;1.65;;;;;;;;;;2081569;28;20041;-64
2022/05/10 03:38:54;;;;;;;3.78;1.60;;;;;;;;;;2081655;28;20041;-64
2022/05/10 03:40:13;;;;;;;2.75;1.38;;;;;;;;;;2079401;28;20516;-64
2022/05/10 03:41:32;;;;;;;1.40;1.30;;;;;;;;;;2081050;28;20033;-65
2022/05/10 03:42:52;;;;;;;4.32;1.67;;;;;;;;;;2078676;28;20038;-62
2022/05/10 03:44:11;;;;;;;1.83;1.15;;;;;;;;;;2077561;28;20033;-64
2022/05/10 03:45:30;;;;;;;2.65;1.77;;;;;;;;;;2077601;28;20029;-64
2022/05/10 03:46:49;;;;;;;4.60;1.77;;;;;;;;;;2081422;28;20033;-64
2022/05/10 03:48:08;;;;;;;3.88;1.40;;;;;;;;;;2081501;28;20484;-67
2022/05/10 03:49:27;;;;;;;2.75;1.60;;;;;;;;;;2082056;28;20488;-65
2022/05/10 03:50:46;;;;;;;2.13;1.20;;;;;;;;;;2081750;28;20018;-66
2022/05/10 03:52:05;;;;;;;4.72;1.58;;;;;;;;;;2080775;28;20026;-64
2022/05/10 03:53:24;;;;;;;2.30;1.35;;;;;;;;;;2071687;28;20478;-64
2022/05/10 03:54:43;;;;;;;2.75;1.35;;;;;;;;;;2069950;28;20429;-65
2022/05/10 03:56:02;;;;;;;2.65;1.60;;;;;;;;;;2077710;28;20029;-65
2022/05/10 03:57:21;;;;;;;2.80;1.17;;;;;;;;;;2081181;28;20392;-65
2022/05/10 03:58:40;;;;;;;1.77;1.20;;;;;;;;;;2080985;28;20069;-68
2022/05/10 03:59:59;;;;;;;2.35;1.23;;;;;;;;;;2082138;28;20033;-66
2022/05/10 04:01:19;;;;;;;2.10;1.42;;;;;;;;;;2080948;28;20034;-66
2022/05/10 04:02:38;;;;;;;3.00;1.13;;;;;;;;;;2080547;28;20021;-66
2022/05/10 04:03:56;;;;;;;3.75;1.30;;;;;;;;;;2081525;28;20116;-67
2022/05/10 04:05:17;;;;;;;3.08;1.17;;;;;;;;;;2080963;28;20030;-67
2022/05/10 04:06:36;;;;;;;4.78;1.25;;;;;;;;;;2081235;28;20041;-66
2022/05/10 04:07:55;;;;;;;2.10;1.10;;;;;;;;;;2082389;28;20025;-66
2022/05/10 04:09:15;;;;;;;4.18;1.48;;;;;;;;;;2081377;28;20029;-66
2022/05/10 04:10:34;;;;;;;1.33;1.10;;;;;;;;;;2079405;28;20026;-66
2022/05/10 04:11:53;;;;;;;2.95;1.13;;;;;;;;;;2080931;28;20029;-66
2022/05/10 04:13:12;;;;;;;5.93;1.88;;;;;;;;;;2080978;28;20065;-66
2022/05/10 04:14:31;;;;;;;2.20;1.10;;;;;;;;;;2082063;28;20029;-65
2022/05/10 04:15:50;;;;;;;2.97;1.30;;;;;;;;;;2081725;28;20018;-65
2022/05/10 04:17:09;;;;;;;3.30;1.45;;;;;;;;;;2081196;28;20116;-65
2022/05/10 04:18:27;;;;;;;3.10;1.38;;;;;;;;;;2077646;28;20482;-65
2022/05/10 04:19:47;;;;;;;2.80;1.50;;;;;;;;;;2081156;28;20022;-67
2022/05/10 04:21:05;;;;;;;1.73;1.10;;;;;;;;;;2080878;28;20021;-64
2022/05/10 04:22:24;;;;;;;3.28;1.05;;;;;;;;;;2080034;28;20026;-66
2022/05/10 04:23:43;;;;;;;5.75;1.30;;;;;;;;;;2081609;28;20104;-65
2022/05/10 04:25:03;;;;;;;2.80;1.13;;;;;;;;;;2081198;28;20030;-66
2022/05/10 04:26:21;;;;;;;2.53;1.35;;;;;;;;;;2081445;28;20025;-66
2022/05/10 04:27:40;;;;;;;2.95;1.38;;;;;;;;;;2077131;28;20038;-65
2022/05/10 04:29:00;;;;;;;4.78;1.52;;;;;;;;;;2081880;28;20029;-66
2022/05/10 04:30:19;;;;;;;1.98;1.10;;;;;;;;;;2081052;28;20029;-66
2022/05/10 04:31:39;;;;;;;1.65;1.25;;;;;;;;;;2080998;28;20454;-66
2022/05/10 04:32:57;;;;;;;4.45;1.30;;;;;;;;;;2081588;28;20049;-66
2022/05/10 04:34:16;;;;;;;2.83;1.45;;;;;;;;;;2081548;28;20041;-65
2022/05/10 04:35:35;;;;;;;3.33;1.30;;;;;;;;;;2078859;28;20034;-65
2022/05/10 04:36:54;;;;;;;3.30;1.00;;;;;;;;;;2081160;28;20134;-65
2022/05/10 04:38:13;;;;;;;2.00;1.10;;;;;;;;;;2084146;28;20128;-65
2022/05/10 04:41:27;;;;;;;3.25;0.95;;;;;;;;;;2088526;28;20033;-66
2022/05/10 04:42:46;;;;;;;2.67;1.30;;;;;;;;;;2088256;28;20025;-66
2022/05/10 04:44:06;;;;;;;2.08;1.02;;;;;;;;;;2087593;28;20017;-65
2022/05/10 04:45:25;;;;;;;3.28;1.15;;;;;;;;;;2088230;28;20021;-66
2022/05/10 04:46:44;;;;;;;2.13;1.27;;;;;;;;;;2089145;28;20025;-65
2022/05/10 04:48:03;;;;;;;2.10;1.20;;;;;;;;;;2088010;28;20054;-65
2022/05/10 04:49:22;;;;;;;5.30;1.10;;;;;;;;;;2088283;28;20394;-64
2022/05/10 04:50:41;;;;;;;2.42;1.00;;;;;;;;;;2091227;28;20037;-67
2022/05/10 04:52:00;;;;;;;1.60;1.23;;;;;;;;;;2089786;28;20024;-64
2022/05/10 04:53:19;;;;;;;2.22;1.10;;;;;;;;;;2081092;28;20030;-64
2022/05/10 04:54:40;;;;;;;4.63;0.90;;;;;;;;;;2085384;28;20483;-65
2022/05/10 04:55:58;;;;;;;4.53;0.98;;;;;;;;;;2085992;28;20029;-65
2022/05/10 04:57:18;;;;;;;3.72;1.10;;;;;;;;;;2080780;28;20033;-65
2022/05/10 04:58:37;;;;;;;3.30;1.00;;;;;;;;;;2085957;28;20025;-64
2022/05/10 04:59:55;;;;;;;3.60;0.90;;;;;;;;;;2088811;28;20025;-65
2022/05/10 05:01:15;;;;;;;4.05;0.98;;;;;;;;;;2087011;28;20030;-65
2022/05/10 05:02:35;;;;;;;4.32;1.00;;;;;;;;;;2089174;28;20029;-65
2022/05/10 05:03:59;;;;;;;3.97;0.90;;;;;;;;;;2087898;28;20025;-65
2022/05/10 05:05:18;;;;;;;4.25;0.90;;;;;;;;;;2089004;28;20029;-65
2022/05/10 05:06:39;;;;;;;4.57;0.80;;;;;;;;;;2089302;28;20025;-65
2022/05/10 05:07:58;;;;;;;1.83;0.85;;;;;;;;;;2087741;28;20021;-65
2022/05/10 05:09:17;;;;;;;2.03;0.95;;;;;;;;;;2088872;28;20052;-65
2022/05/10 05:10:36;;;;;;;4.10;1.10;;;;;;;;;;2084793;28;20033;-65
2022/05/10 05:11:56;;;;;;;1.85;0.73;;;;;;;;;;2080409;28;20021;-65
2022/05/10 05:13:15;;;;;;;6.20;0.90;;;;;;;;;;2079256;28;20029;-65
2022/05/10 05:14:34;;;;;;;3.00;1.10;;;;;;;;;;2075658;28;20455;-64
2022/05/10 05:15:53;;;;;;;2.60;0.88;;;;;;;;;;2085396;28;20033;-64
2022/05/10 05:17:12;;;;;;;3.33;0.90;;;;;;;;;;2087590;28;20570;-64
2022/05/10 05:18:32;;;;;;;3.03;0.90;;;;;;;;;;2087546;28;20025;-64
2022/05/10 05:19:52;;;;;;;4.10;0.70;;;;;;;;;;2077947;28;20656;-64
2022/05/10 05:21:10;;;;;;;1.48;0.60;;;;;;;;;;2085200;28;20100;-64
2022/05/10 05:22:29;;;;;;;2.28;0.88;;;;;;;;;;2089091;28;20392;-64
2022/05/10 05:23:48;;;;;;;4.70;1.20;;;;;;;;;;2088785;28;20021;-64
2022/05/10 05:25:08;;;;;;;2.10;0.80;;;;;;;;;;2086755;28;20017;-64
2022/05/10 05:26:27;;;;;;;2.03;0.88;;;;;;;;;;2089660;28;20443;-65
2022/05/10 05:27:45;;;;;;;4.60;1.10;;;;;;;;;;2089608;28;20029;-64
2022/05/10 05:29:05;;;;;;;1.35;0.90;;;;;;;;;;2088747;28;20467;-65
2022/05/10 05:30:24;;;;;;;1.77;0.90;;;;;;;;;;2087393;28;20048;-64
2022/05/10 05:31:42;;;;;;;0.93;0.85;;;;;;;;;;2089619;28;20485;-65
2022/05/10 05:33:01;;;;;;;3.13;1.20;;;;;;;;;;2089381;28;20045;-64
2022/05/10 05:34:20;;;;;;;2.92;1.20;;;;;;;;;;2088524;28;20344;-64
2022/05/10 05:35:39;;;;;;;1.02;0.90;;;;;;;;;;2088319;28;20037;-64
2022/05/10 05:38:36;;;;;;;1.90;0.63;;;;;;;;;;2087424;28;20650;-65
2022/05/10 05:39:55;;;;;;;1.52;0.82;;;;;;;;;;2080604;28;20026;-66
2022/05/10 05:41:15;;;;;;;1.17;1.08;;;;;;;;;;2085923;28;20068;-65
2022/05/10 05:42:34;;;;;;;2.97;1.10;;;;;;;;;;2088730;28;20057;-66
2022/05/10 05:43:53;;;;;;;2.10;1.10;;;;;;;;;;2085523;28;20511;-67
2022/05/10 05:45:13;;;;;;;2.60;0.85;;;;;;;;;;2088403;28;20148;-66
2022/05/10 05:46:31;;;;;;;1.42;0.80;;;;;;;;;;2080801;28;20132;-66
2022/05/10 05:47:51;;;;;;;3.60;0.85;;;;;;;;;;2084996;28;20499;-66
2022/05/10 05:49:11;;;;;;;2.38;0.90;;;;;;;;;;2088523;28;20040;-65
2022/05/10 05:50:30;;;;;;;3.85;0.90;;;;;;;;;;2078430;28;20038;-66
2022/05/10 05:51:49;;;;;;;3.03;1.10;;;;;;;;;;2086133;28;20056;-66
2022/05/10 05:53:08;;;;;;;1.20;1.10;;;;;;;;;;2090726;28;20107;-66
2022/05/10 05:54:27;;;;;;;2.75;1.00;;;;;;;;;;2087808;28;20391;-66
2022/05/10 05:55:48;;;;;;;8.02;1.52;;;;;;;;;;2088072;28;20110;-68
2022/05/10 05:57:07;;;;;;;3.70;0.73;;;;;;;;;;2088322;28;20507;-65
2022/05/10 05:58:26;;;;;;;6.90;2.00;;;;;;;;;;2089235;28;20037;-66
2022/05/10 05:59:45;;;;;;;1.33;1.10;;;;;;;;;;2080853;28;20021;-67
2022/05/10 06:01:14;;;;;;;3.70;1.88;;;;;;;;;;2083481;28;20025;-67
2022/05/10 06:02:33;;;;;;;3.13;1.63;;;;;;;;;;2087190;28;20499;-66
2022/05/10 06:03:55;;;;;;;2.85;0.82;;;;;;;;;;2087974;28;20100;-67
2022/05/10 06:05:14;;;;;;;3.97;1.25;;;;;;;;;;2086662;28;20391;-67
2022/05/10 06:06:33;;;;;;;1.85;1.50;;;;;;;;;;2089067;28;20037;-67
2022/05/10 06:07:53;;;;;;;2.67;0.93;;;;;;;;;;2088556;28;20024;-67
2022/05/10 06:09:12;;;;;;;3.33;1.08;;;;;;;;;;2088127;28;20029;-68
2022/05/10 06:10:31;;;;;;;3.97;0.85;;;;;;;;;;2079366;28;20049;-66
2022/05/10 06:11:50;;;;;;;2.95;0.93;;;;;;;;;;2085697;28;20033;-68
2022/05/10 06:13:09;;;;;;;1.58;0.90;;;;;;;;;;2088071;28;20417;-67
2022/05/10 06:14:29;;;;;;;2.55;1.02;;;;;;;;;;2079874;28;20029;-67
2022/05/10 06:15:49;;;;;;;2.97;1.13;;;;;;;;;;2085887;28;20029;-67
2022/05/10 06:17:08;;;;;;;1.20;1.10;;;;;;;;;;2088356;28;20060;-68
2022/05/10 06:18:27;;;;;;;2.03;0.88;;;;;;;;;;2089043;28;20021;-66
2022/05/10 06:19:46;;;;;;;0.82;0.70;;;;;;;;;;2078312;28;20033;-66
2022/05/10 06:21:05;;;;;;;2.05;0.80;;;;;;;;;;2083536;28;20022;-66
2022/05/10 06:22:24;;;;;;;2.65;1.00;;;;;;;;;;2089374;28;20029;-66
2022/05/10 06:23:43;;;;;;;3.60;1.00;;;;;;;;;;2086850;28;20033;-66
2022/05/10 06:25:03;;;;;;;3.03;1.10;;;;;;;;;;2088759;28;20025;-67
2022/05/10 06:26:21;;;;;;;3.10;1.20;;;;;;;;;;2088463;28;20515;-66
2022/05/10 06:27:40;;;;;;;2.78;1.23;;;;;;;;;;2080702;28;20515;-66
2022/05/10 06:28:59;;;;;;;1.65;1.05;;;;;;;;;;2084646;28;20033;-66
2022/05/10 06:30:19;;;;;;;2.95;1.15;;;;;;;;;;2088855;28;20036;-66
2022/05/10 06:31:42;;;;;;;2.17;1.50;;;;;;;;;;2081343;28;20030;-66
2022/05/10 06:33:01;;;;;;;4.28;1.02;;;;;;;;;;2086542;28;20029;-65
2022/05/10 06:34:19;;;;;;;3.10;1.20;;;;;;;;;;2090518;28;20457;-66
2022/05/10 06:35:40;;;;;;;1.98;1.10;;;;;;;;;;2091318;28;20033;-65
2022/05/10 06:36:58;;;;;;;2.63;1.10;;;;;;;;;;2087186;28;20029;-66
2022/05/10 06:38:19;;;;;;;3.92;1.67;;;;;;;;;;2087244;28;20037;-66
2022/05/10 06:39:38;;;;;;;1.60;1.30;;;;;;;;;;2089659;28;20025;-65
2022/05/10 06:41:01;;;;;;;2.33;1.50;;;;;;;;;;2090807;28;20037;-65
2022/05/10 06:42:23;;;;;;;1.70;1.10;;;;;;;;;;2090262;28;20551;-66
2022/05/10 06:43:42;;;;;;;1.73;1.33;;;;;;;;;;2089531;28;20029;-66
2022/05/10 06:45:01;;;;;;;4.65;1.40;;;;;;;;;;2082193;28;20065;-66
2022/05/10 06:46:21;;;;;;;1.90;1.05;;;;;;;;;;2088635;28;20033;-67
2022/05/10 06:47:42;;;;;;;6.35;1.20;;;;;;;;;;2089392;28;20029;-66
2022/05/10 06:49:02;;;;;;;6.35;1.50;;;;;;;;;;2091304;28;20022;-67
2022/05/10 06:50:22;;;;;;;6.35;1.20;;;;;;;;;;2090206;28;20029;-66
2022/05/10 06:51:41;;;;;;;3.22;1.05;;;;;;;;;;2089489;28;20052;-64
2022/05/10 06:53:00;;;;;;;5.63;1.10;;;;;;;;;;2090142;28;20032;-68
2022/05/10 06:54:19;;;;;;;1.67;0.93;;;;;;;;;;2089715;28;20029;-67
2022/05/10 06:55:38;;;;;;;2.05;1.23;;;;;;;;;;2090632;28;20387;-66
2022/05/10 06:56:57;;;;;;;6.00;1.20;;;;;;;;;;2090309;28;20490;-66
2022/05/10 06:58:16;;;;;;;5.20;1.10;;;;;;;;;;2090103;28;20033;-67
2022/05/10 06:59:35;;;;;;;12.27;1.83;;;;;;;;;;2090682;28;20025;-67
2022/05/10 07:00:54;;;;;;;2.95;1.25;;;;;;;;;;2079528;28;20506;-67
2022/05/10 07:02:14;;;;;;;5.00;1.40;;;;;;;;;;2083525;28;20076;-67
2022/05/10 07:03:33;;;;;;;2.38;1.40;;;;;;;;;;2089055;28;20029;-67
2022/05/10 07:04:53;;;;;;;3.22;1.52;;;;;;;;;;2089399;28;20021;-67
2022/05/10 07:06:14;;;;;;;5.25;1.58;;;;;;;;;;2080296;28;20030;-67
2022/05/10 07:07:33;;;;;;;2.63;1.25;;;;;;;;;;2078272;28;20045;-68
2022/05/10 07:08:51;;;;;;;1.55;1.30;;;;;;;;;;2085797;28;20108;-68
2022/05/10 07:10:11;;;;;;;3.72;1.13;;;;;;;;;;2089076;28;20830;-67
2022/05/10 07:11:30;;;;;;;6.40;1.50;;;;;;;;;;2089654;28;20410;-67
2022/05/10 07:12:49;;;;;;;1.10;1.00;;;;;;;;;;2081500;28;20034;-67
2022/05/10 07:14:08;;;;;;;3.47;1.17;;;;;;;;;;2077427;28;20057;-66
2022/05/10 07:15:27;;;;;;;1.45;0.98;;;;;;;;;;2084447;28;20116;-66
2022/05/10 07:16:46;;;;;;;6.18;1.45;;;;;;;;;;2089855;28;20028;-66
2022/05/10 07:18:05;;;;;;;5.47;1.58;;;;;;;;;;2087580;28;20399;-66
2022/05/10 07:19:25;;;;;;;2.58;1.40;;;;;;;;;;2087962;28;20588;-66
2022/05/10 07:20:44;;;;;;;1.35;0.95;;;;;;;;;;2087843;28;20060;-67
2022/05/10 07:22:03;;;;;;;2.30;1.45;;;;;;;;;;2089175;28;20033;-66
2022/05/10 07:23:24;;;;;;;5.30;1.20;;;;;;;;;;2080527;28;20037;-67
2022/05/10 07:24:43;;;;;;;2.35;1.65;;;;;;;;;;2086173;28;20025;-68
2022/05/10 07:26:02;;;;;;;2.50;1.35;;;;;;;;;;2089951;28;20104;-67
2022/05/10 07:27:20;;;;;;;2.17;1.60;;;;;;;;;;2089499;28;20108;-66
2022/05/10 07:28:39;;;;;;;1.77;1.05;;;;;;;;;;2089364;28;20037;-67
2022/05/10 07:29:58;;;;;;;3.72;1.10;;;;;;;;;;2089527;28;20025;-66
2022/05/10 07:31:17;;;;;;;2.70;1.33;;;;;;;;;;2090223;28;20084;-67
2022/05/10 07:32:36;;;;;;;2.53;1.00;;;;;;;;;;2089472;28;20403;-66
2022/05/10 07:33:55;;;;;;;5.05;1.20;;;;;;;;;;2081674;28;20060;-66
2022/05/10 07:35:14;;;;;;;3.95;1.70;;;;;;;;;;2086700;28;20036;-66
2022/05/10 07:36:33;;;;;;;3.00;1.40;;;;;;;;;;2089791;28;20112;-66
2022/05/10 07:37:53;;;;;;;3.53;1.63;;;;;;;;;;2090071;28;20498;-66
2022/05/10 07:39:14;;;;;;;4.72;1.30;;;;;;;;;;2081127;28;20503;-68
2022/05/10 07:40:34;;;;;;;4.13;1.20;;;;;;;;;;2086513;28;20076;-66
2022/05/10 07:41:54;;;;;;;3.58;1.55;;;;;;;;;;2089619;28;20671;-65
2022/05/10 07:43:14;;;;;;;6.43;1.55;;;;;;;;;;2090088;28;20037;-66
2022/05/10 07:44:33;;;;;;;3.75;1.10;;;;;;;;;;2087722;28;20423;-68
2022/05/10 07:45:52;;;;;;;3.03;1.10;;;;;;;;;;2086838;28;20022;-66
2022/05/10 07:47:11;;;;;;;2.72;1.20;;;;;;;;;;2087202;28;20032;-68
2022/05/10 07:48:30;;;;;;;3.17;1.00;;;;;;;;;;2089474;28;20029;-67
2022/05/10 07:49:49;;;;;;;4.60;1.38;;;;;;;;;;2088376;28;20486;-71
2022/05/10 07:51:08;;;;;;;1.10;0.85;;;;;;;;;;2080300;28;20030;-68
2022/05/10 07:52:27;;;;;;;2.00;1.10;;;;;;;;;;2086087;28;20032;-67
2022/05/10 07:53:46;;;;;;;4.18;1.10;;;;;;;;;;2089591;28;20033;-68
2022/05/10 07:55:05;;;;;;;6.53;1.77;;;;;;;;;;2088845;28;20029;-68
2022/05/10 07:56:24;;;;;;;3.47;1.45;;;;;;;;;;2088636;28;20025;-67
2022/05/10 07:57:43;;;;;;;3.25;1.40;;;;;;;;;;2089610;28;20036;-67
2022/05/10 07:59:03;;;;;;;3.72;1.13;;;;;;;;;;2081297;28;20038;-66
2022/05/10 08:00:22;;;;;;;2.08;1.10;;;;;;;;;;2085739;28;20033;-68
2022/05/10 08:01:41;;;;;;;2.97;1.45;;;;;;;;;;2088006;28;20100;-67
2022/05/10 08:03:06;;;;;;;1.67;1.17;;;;;;;;;;2078676;28;20057;-67
2022/05/10 08:04:26;;;;;;;6.15;1.52;;;;;;;;;;2087189;28;20068;-67
2022/05/10 08:05:46;;;;;;;2.47;1.10;;;;;;;;;;2080932;28;20409;-70
2022/05/10 08:07:05;;;;;;;4.28;1.20;;;;;;;;;;2087236;28;20359;-68
2022/05/10 08:08:24;;;;;;;6.45;1.83;;;;;;;;;;2080765;28;20045;-67
2022/05/10 08:09:43;;;;;;;1.25;1.10;;;;;;;;;;2086111;28;20036;-67
2022/05/10 08:11:03;;;;;;;3.67;1.60;;;;;;;;;;2087489;28;20081;-67